Time;durP1;ratioP1;P1;durP2;ratioP2;P2;SDS_P1;SDS_P2;PMS_P1;PMS_P2;Temp;Humidity;BMP_temperature;BMP_pressure;BME280_temperature;BME280_humidity;BME280_pressure;Samples;Min_cycle;Max_cycle;Signal;HPM_P1;HPM_P2
2021/12/03 00:04:27;;;;;;;13.70;6.40;;;2.40;99.90;;;;;;5075327;28;20499;-81
2021/12/03 00:07:12;;;;;;;21.67;6.27;;;2.40;99.90;;;;;;5074724;28;20491;-81
2021/12/03 00:09:41;;;;;;;16.67;7.22;;;2.60;99.90;;;;;;5073970;28;20478;-81
2021/12/03 00:12:11;;;;;;;14.17;5.80;;;2.50;99.90;;;;;;5075671;28;20195;-81
2021/12/03 00:14:39;;;;;;;10.57;6.13;;;2.50;99.90;;;;;;5074399;28;20471;-81
2021/12/03 00:17:29;;;;;;;12.73;5.97;;;2.40;99.90;;;;;;5074637;28;20454;-81
2021/12/03 00:20:13;;;;;;;13.83;5.97;;;2.40;99.90;;;;;;5074949;28;20994;-81
2021/12/03 00:22:41;;;;;;;15.43;5.93;;;2.40;99.90;;;;;;5075212;28;20435;-80
2021/12/03 00:25:15;;;;;;;17.63;5.70;;;2.50;99.90;;;;;;5074024;28;20538;-81
2021/12/03 00:27:46;;;;;;;16.87;6.07;;;2.50;99.90;;;;;;5074412;28;20452;-81
2021/12/03 00:30:16;;;;;;;17.00;6.23;;;2.80;99.90;;;;;;5074423;28;20473;-81
2021/12/03 00:32:54;;;;;;;14.70;6.20;;;2.90;99.90;;;;;;5073895;28;20440;-81
2021/12/03 00:35:52;;;;;;;13.43;6.40;;;2.80;99.90;;;;;;5074502;28;20443;-81
2021/12/03 00:38:22;;;;;;;15.43;7.85;;;2.70;99.90;;;;;;5074127;28;20426;-81
2021/12/03 00:40:55;;;;;;;16.67;6.43;;;2.80;99.90;;;;;;5072889;28;20206;-81
2021/12/03 00:43:22;;;;;;;13.13;6.13;;;2.80;99.90;;;;;;5068647;28;20455;-80
2021/12/03 00:46:03;;;;;;;14.20;6.40;;;2.70;99.90;;;;;;5067805;28;20454;-81
2021/12/03 00:48:34;;;;;;;15.47;6.53;;;2.70;99.90;;;;;;5068183;28;20495;-80
2021/12/03 00:51:05;;;;;;;21.07;6.97;;;2.70;99.90;;;;;;5067990;28;20488;-80
2021/12/03 00:53:54;;;;;;;10.30;6.50;;;2.70;99.90;;;;;;5069393;28;20435;-82
2021/12/03 00:56:28;;;;;;;22.83;8.47;;;2.70;99.90;;;;;;5069127;28;20482;-81
2021/12/03 00:59:02;;;;;;;17.33;6.43;;;2.80;99.90;;;;;;5068445;28;20459;-81
2021/12/03 01:01:39;;;;;;;17.03;7.07;;;2.80;99.90;;;;;;5067040;28;20442;-81
2021/12/03 01:04:09;;;;;;;20.17;7.03;;;2.70;99.90;;;;;;5066814;28;20467;-81
2021/12/03 01:06:38;;;;;;;20.40;7.17;;;2.80;99.90;;;;;;5068005;28;20534;-81
2021/12/03 01:09:05;;;;;;;20.00;7.50;;;2.90;99.90;;;;;;5050111;28;20451;-81
2021/12/03 01:11:36;;;;;;;23.37;7.73;;;2.80;99.90;;;;;;5066932;28;20447;-82
2021/12/03 01:14:04;;;;;;;18.67;7.10;;;2.70;99.90;;;;;;5066554;28;20473;-81
2021/12/03 01:16:40;;;;;;;21.47;7.47;;;2.70;99.90;;;;;;5065098;28;20543;-82
2021/12/03 01:19:12;;;;;;;20.23;7.73;;;2.70;99.90;;;;;;5068204;28;20435;-81
2021/12/03 01:21:44;;;;;;;22.10;7.83;;;2.80;99.90;;;;;;5076228;28;20510;-81
2021/12/03 01:24:12;;;;;;;28.60;8.27;;;2.90;99.90;;;;;;5055165;28;20448;-81
2021/12/03 01:26:45;;;;;;;27.13;7.13;;;2.90;99.90;;;;;;5072128;28;20451;-80
2021/12/03 01:29:19;;;;;;;26.70;7.80;;;3.00;99.90;;;;;;5072436;28;20466;-81
2021/12/03 01:32:01;;;;;;;26.70;6.90;;;3.00;99.90;;;;;;5071020;28;20451;-81
2021/12/03 01:34:48;;;;;;;17.27;6.80;;;2.90;99.90;;;;;;5070269;28;20787;-81
2021/12/03 01:37:27;;;;;;;23.45;8.65;;;3.00;99.90;;;;;;5067739;28;20442;-81
2021/12/03 01:40:02;;;;;;;17.93;6.70;;;2.80;99.90;;;;;;5067850;28;20198;-81
2021/12/03 01:42:42;;;;;;;17.53;5.97;;;2.70;99.90;;;;;;5067323;28;20473;-81
2021/12/03 01:45:23;;;;;;;18.17;6.20;;;2.70;99.90;;;;;;5066787;28;20469;-81
2021/12/03 01:47:54;;;;;;;16.87;6.50;;;2.60;99.90;;;;;;5067749;28;20459;-81
2021/12/03 01:50:26;;;;;;;15.63;6.47;;;2.60;99.90;;;;;;5065729;28;20871;-81
2021/12/03 01:53:01;;;;;;;27.10;7.03;;;2.70;99.90;;;;;;5065833;28;20554;-81
2021/12/03 01:55:35;;;;;;;17.83;5.67;;;2.60;99.90;;;;;;5065993;28;20510;-81
2021/12/03 01:58:11;;;;;;;23.80;5.17;;;2.60;99.90;;;;;;5066770;28;21093;-81
2021/12/03 02:00:53;;;;;;;30.03;6.83;;;2.50;99.90;;;;;;5065532;28;20435;-81
2021/12/03 02:03:35;;;;;;;29.40;7.77;;;2.50;99.90;;;;;;5066357;28;20509;-80
2021/12/03 02:06:05;;;;;;;16.77;5.43;;;2.50;99.90;;;;;;5064049;28;20458;-80
2021/12/03 02:08:51;;;;;;;15.57;5.63;;;2.50;99.90;;;;;;5063323;28;20458;-81
2021/12/03 02:11:24;;;;;;;21.53;6.00;;;2.50;99.90;;;;;;5065125;28;20610;-81
2021/12/03 02:13:53;;;;;;;18.50;5.77;;;2.50;99.90;;;;;;5064318;28;20864;-81
2021/12/03 02:16:24;;;;;;;16.97;5.97;;;2.40;99.90;;;;;;5064509;28;20506;-81
2021/12/03 02:18:53;;;;;;;22.73;6.17;;;2.50;99.90;;;;;;5063437;28;20504;-81
2021/12/03 02:21:28;;;;;;;25.60;6.63;;;2.40;99.90;;;;;;5063068;28;20523;-80
2021/12/03 02:24:02;;;;;;;22.57;5.70;;;2.40;99.90;;;;;;5063599;28;20436;-81
2021/12/03 02:26:45;;;;;;;16.70;5.00;;;2.30;99.90;;;;;;5063078;28;20434;-80
2021/12/03 02:29:18;;;;;;;15.30;5.53;;;2.50;99.90;;;;;;5063031;28;20912;-80
2021/12/03 02:31:51;;;;;;;20.03;5.70;;;2.50;99.90;;;;;;5061362;28;20539;-80
2021/12/03 02:34:20;;;;;;;15.63;5.43;;;2.30;99.90;;;;;;5062819;28;20447;-80
2021/12/03 02:36:50;;;;;;;28.60;7.20;;;2.30;99.90;;;;;;5062401;28;20444;-81
2021/12/03 02:39:23;;;;;;;23.50;6.13;;;2.30;99.90;;;;;;5063783;28;20203;-80
2021/12/03 02:42:00;;;;;;;27.10;5.30;;;2.30;99.90;;;;;;5062549;28;20547;-80
2021/12/03 02:44:30;;;;;;;23.07;6.17;;;2.30;99.90;;;;;;5064966;28;20455;-81
2021/12/03 02:47:08;;;;;;;21.63;6.03;;;2.40;99.90;;;;;;5064357;28;20466;-80
2021/12/03 02:49:39;;;;;;;15.33;5.53;;;2.40;99.90;;;;;;5064906;28;20428;-80
2021/12/03 02:52:18;;;;;;;18.30;5.27;;;2.40;99.90;;;;;;5063879;28;20461;-80
2021/12/03 02:54:50;;;;;;;22.30;5.50;;;2.40;99.90;;;;;;5063597;28;20451;-81
2021/12/03 02:57:26;;;;;;;15.60;5.27;;;2.40;99.90;;;;;;5065400;28;20511;-81
2021/12/03 03:00:02;;;;;;;22.73;5.93;;;2.50;99.90;;;;;;5049551;28;20447;-81
2021/12/03 03:02:33;;;;;;;21.10;5.77;;;2.50;99.90;;;;;;5068184;28;20954;-81
2021/12/03 03:05:08;;;;;;;14.77;5.17;;;2.50;99.90;;;;;;5069263;28;20435;-81
2021/12/03 03:10:41;;;;;;;16.20;5.67;;;2.60;99.90;;;;;;5069887;28;20198;-81
2021/12/03 03:13:16;;;;;;;17.77;5.30;;;2.70;99.90;;;;;;5069757;28;20458;-80
2021/12/03 03:15:51;;;;;;;18.23;4.80;;;2.70;99.90;;;;;;5069955;28;20466;-81
2021/12/03 03:18:27;;;;;;;16.47;5.57;;;2.70;99.90;;;;;;5069437;28;20487;-81
2021/12/03 03:20:59;;;;;;;17.60;6.00;;;2.60;99.90;;;;;;5070130;28;20518;-82
2021/12/03 03:23:37;;;;;;;13.63;5.30;;;2.50;99.90;;;;;;5070530;28;20479;-80
2021/12/03 03:26:12;;;;;;;24.47;5.33;;;2.50;99.90;;;;;;5070254;28;20465;-81
2021/12/03 03:28:44;;;;;;;23.37;6.60;;;2.50;99.90;;;;;;5052886;28;20439;-81
2021/12/03 03:31:15;;;;;;;14.33;5.13;;;2.40;99.90;;;;;;5070550;28;20479;-81
2021/12/03 03:33:51;;;;;;;18.17;5.47;;;2.40;99.90;;;;;;5069460;28;20479;-79
2021/12/03 03:36:19;;;;;;;13.10;4.93;;;2.40;99.90;;;;;;5069344;28;20451;-81
2021/12/03 03:38:51;;;;;;;21.37;5.53;;;2.50;99.90;;;;;;5069322;28;20491;-81
2021/12/03 03:41:31;;;;;;;18.33;5.83;;;2.40;99.90;;;;;;5069086;28;20801;-81
2021/12/03 03:44:02;;;;;;;14.77;5.00;;;2.40;99.90;;;;;;5068475;28;20506;-81
2021/12/03 03:46:40;;;;;;;15.77;5.07;;;2.40;99.90;;;;;;5068831;28;20511;-81
2021/12/03 03:49:12;;;;;;;14.70;5.77;;;2.50;99.90;;;;;;5051269;28;20427;-81
2021/12/03 03:51:41;;;;;;;19.43;5.50;;;2.50;99.90;;;;;;5050732;28;20451;-81
2021/12/03 03:54:18;;;;;;;17.23;5.37;;;2.40;99.90;;;;;;5070614;28;20436;-81
2021/12/03 03:56:55;;;;;;;20.33;4.87;;;2.40;99.90;;;;;;5069796;28;20471;-81
2021/12/03 03:59:22;;;;;;;16.93;5.53;;;2.30;99.90;;;;;;5068173;28;20842;-81
2021/12/03 04:01:52;;;;;;;17.60;4.70;;;2.30;99.90;;;;;;5069156;28;20475;-81
2021/12/03 04:04:20;;;;;;;18.80;4.70;;;2.40;99.90;;;;;;5069733;28;20515;-82
2021/12/03 04:06:53;;;;;;;27.27;4.37;;;2.40;99.90;;;;;;5071125;28;20462;-80
2021/12/03 04:09:25;;;;;;;21.90;6.33;;;2.30;99.90;;;;;;5072207;28;20477;-81
2021/12/03 04:12:03;;;;;;;19.80;4.80;;;2.40;99.90;;;;;;5073650;28;20266;-82
2021/12/03 04:14:33;;;;;;;23.73;4.83;;;2.40;99.90;;;;;;5073099;28;20446;-81
2021/12/03 04:20:11;;;;;;;22.00;4.27;;;2.40;99.90;;;;;;5071057;28;20439;-82
2021/12/03 04:36:42;;;;;;;15.33;4.43;;;2.30;99.90;;;;;;5078246;28;20487;-87
2021/12/03 04:49:21;;;;;;;18.97;4.90;;;2.30;99.90;;;;;;5090254;22;20478;-87
2021/12/03 04:55:03;;;;;;;20.40;6.70;;;2.20;99.90;;;;;;5091346;28;20514;-88
2021/12/03 04:57:38;;;;;;;17.80;7.30;;;2.00;99.90;;;;;;5098600;28;20519;-87
2021/12/03 05:00:12;;;;;;;17.83;7.40;;;2.10;99.90;;;;;;5097349;28;20449;-88
2021/12/03 05:02:54;;;;;;;24.03;7.87;;;1.90;99.90;;;;;;5081352;28;20446;-85
2021/12/03 05:05:26;;;;;;;21.10;7.37;;;2.10;99.90;;;;;;5098858;28;20537;-87
2021/12/03 05:08:21;;;;;;;29.37;8.67;;;2.00;99.90;;;;;;5099235;28;20445;-87
2021/12/03 05:10:51;;;;;;;32.40;8.47;;;1.90;99.90;;;;;;5320064;22;20535;-87
2021/12/03 05:13:22;;;;;;;28.85;10.93;;;2.00;99.90;;;;;;5093717;28;20439;-85
2021/12/03 05:15:53;;;;;;;25.07;8.47;;;2.10;99.90;;;;;;5075842;28;20271;-86
2021/12/03 05:18:28;;;;;;;29.40;8.80;;;2.20;99.90;;;;;;5091548;28;20510;-86
2021/12/03 05:21:04;;;;;;;24.47;8.80;;;2.20;99.90;;;;;;5093247;28;20494;-86
2021/12/03 05:26:18;;;;;;;23.23;8.03;;;2.20;99.90;;;;;;5106440;22;20490;-86
2021/12/03 05:28:59;;;;;;;30.03;8.00;;;2.10;99.90;;;;;;5092727;28;20439;-86
2021/12/03 05:31:41;;;;;;;27.87;7.40;;;2.20;99.90;;;;;;5092790;28;20833;-87
2021/12/03 05:37:06;;;;;;;23.83;7.20;;;2.10;99.90;;;;;;5076882;28;20442;-86
2021/12/03 05:42:46;;;;;;;33.90;8.27;;;2.10;99.90;;;;;;5076943;28;20494;-86
2021/12/03 05:48:21;;;;;;;24.37;7.00;;;2.20;99.90;;;;;;5093673;22;20497;-87
2021/12/03 05:51:10;;;;;;;26.97;6.80;;;2.20;99.90;;;;;;5095961;28;20450;-87
2021/12/03 05:53:57;;;;;;;27.47;6.83;;;2.10;99.90;;;;;;5097594;28;20438;-87
2021/12/03 05:56:32;;;;;;;21.13;6.60;;;2.10;99.90;;;;;;5097203;28;20470;-87
2021/12/03 06:12:47;;;;;;;20.43;5.87;;;2.20;99.90;;;;;;5134298;22;2263468;-86
2021/12/03 06:15:30;;;;;;;17.27;5.70;;;2.30;99.90;;;;;;5087127;28;20205;-86
2021/12/03 06:18:01;;;;;;;19.47;5.23;;;2.30;99.90;;;;;;5086316;28;20522;-85
2021/12/03 06:20:33;;;;;;;21.03;5.97;;;2.40;99.90;;;;;;5087441;28;20439;-87
2021/12/03 06:23:11;;;;;;;20.53;5.70;;;2.40;99.90;;;;;;5086434;28;20481;-86
2021/12/03 06:25:42;;;;;;;15.50;7.70;;;2.50;99.90;;;;;;5100355;22;20503;-86
2021/12/03 06:37:51;;;;;;;20.50;5.60;;;2.50;99.90;;;;;;5091437;28;20438;-87
2021/12/03 06:50:02;;;;;;;23.23;6.82;;;2.50;99.90;;;;;;5079185;28;20416;-87
2021/12/03 06:53:02;;;;;;;22.87;5.50;;;2.50;99.90;;;;;;5092658;28;20216;-87
2021/12/03 07:04:43;;;;;;;27.63;5.87;;;2.70;99.90;;;;;;5091728;28;20443;-87
2021/12/03 07:10:52;;;;;;;27.03;6.77;;;2.70;99.90;;;;;;5090299;28;20455;-87
2021/12/03 07:23:25;;;;;;;22.67;5.57;;;2.90;99.90;;;;;;5081069;28;20490;-86
2021/12/03 07:26:28;;;;;;;26.00;5.47;;;2.90;99.90;;;;;;5047867;28;20458;-87
2021/12/03 07:32:31;;;;;;;18.77;5.10;;;2.90;99.90;;;;;;5080802;28;20395;-87
2021/12/03 07:41:59;;;;;;;13.90;5.07;;;2.90;99.90;;;;;;5078109;28;20432;-87
2021/12/03 07:47:53;;;;;;;13.60;4.40;;;3.00;99.90;;;;;;5069942;28;20537;-78
2021/12/03 07:50:21;;;;;;;17.43;4.33;;;2.90;99.90;;;;;;5057820;28;20439;-78
2021/12/03 07:52:48;;;;;;;17.93;4.30;;;2.90;99.90;;;;;;5057505;28;20443;-79
2021/12/03 07:55:15;;;;;;;18.00;6.07;;;2.90;99.90;;;;;;5056548;28;20485;-79
2021/12/03 07:57:42;;;;;;;19.53;4.73;;;2.90;99.90;;;;;;5056196;28;20723;-78
2021/12/03 08:00:10;;;;;;;18.50;4.67;;;3.10;99.90;;;;;;5039854;28;20440;-78
2021/12/03 08:02:38;;;;;;;14.53;5.00;;;3.10;99.90;;;;;;5055152;28;20462;-78
2021/12/03 08:05:07;;;;;;;13.67;4.70;;;3.20;99.90;;;;;;5054535;28;20468;-78
2021/12/03 08:07:35;;;;;;;15.80;4.90;;;3.20;99.90;;;;;;5055523;28;20840;-78
2021/12/03 08:10:03;;;;;;;16.20;4.90;;;3.20;99.90;;;;;;5055556;28;20448;-78
2021/12/03 08:12:30;;;;;;;15.93;5.07;;;3.20;99.90;;;;;;5043160;28;20455;-79
2021/12/03 08:14:59;;;;;;;14.87;4.17;;;3.20;99.90;;;;;;5044363;28;21209;-79
2021/12/03 08:17:27;;;;;;;15.57;4.60;;;3.30;99.90;;;;;;5057574;28;20446;-82
2021/12/03 08:19:53;;;;;;;15.67;5.23;;;3.20;99.90;;;;;;5060788;28;20448;-79
2021/12/03 08:22:23;;;;;;;17.90;5.37;;;3.30;99.90;;;;;;5058984;28;20432;-79
2021/12/03 08:24:50;;;;;;;16.00;4.50;;;3.30;99.90;;;;;;5057549;28;20512;-80
2021/12/03 08:27:17;;;;;;;22.97;5.37;;;3.30;99.90;;;;;;5057074;28;20454;-79
2021/12/03 08:29:44;;;;;;;12.37;5.23;;;3.20;99.90;;;;;;5056869;28;20448;-79
2021/12/03 08:32:12;;;;;;;15.03;4.93;;;3.30;99.90;;;;;;5058359;28;20452;-79
2021/12/03 08:34:40;;;;;;;18.77;6.73;;;3.30;99.90;;;;;;5059050;28;20473;-79
2021/12/03 08:37:08;;;;;;;13.90;5.40;;;3.30;99.90;;;;;;5059824;28;20447;-78
2021/12/03 08:39:36;;;;;;;14.53;4.53;;;3.40;99.90;;;;;;5059694;28;20980;-79
2021/12/03 08:42:07;;;;;;;13.00;5.30;;;3.50;99.90;;;;;;5059000;28;20919;-79
2021/12/03 08:44:35;;;;;;;10.10;4.67;;;3.60;99.90;;;;;;5057452;28;20454;-79
2021/12/03 08:47:04;;;;;;;13.53;4.90;;;3.60;99.90;;;;;;5056779;28;20439;-80
2021/12/03 08:49:32;;;;;;;15.23;5.20;;;3.60;99.90;;;;;;5058283;28;20470;-79
2021/12/03 08:52:26;;;;;;;14.33;5.03;;;3.70;99.90;;;;;;5056796;28;20509;-80
2021/12/03 08:54:56;;;;;;;17.37;5.27;;;3.60;99.90;;;;;;5064156;28;20467;-78
2021/12/03 08:57:26;;;;;;;15.53;5.33;;;3.60;99.90;;;;;;5074770;28;20467;-84
2021/12/03 08:59:56;;;;;;;15.40;4.73;;;3.60;99.90;;;;;;5057994;28;20458;-78
2021/12/03 09:02:23;;;;;;;19.70;5.80;;;3.70;99.90;;;;;;5054787;28;20454;-79
2021/12/03 09:04:51;;;;;;;12.97;4.87;;;3.60;99.90;;;;;;5055026;28;20601;-79
2021/12/03 09:07:18;;;;;;;17.13;4.63;;;3.70;99.90;;;;;;5054333;28;20480;-79
2021/12/03 09:09:45;;;;;;;12.90;4.87;;;3.70;99.90;;;;;;5054284;28;20431;-79
2021/12/03 09:12:13;;;;;;;19.13;4.70;;;3.80;99.90;;;;;;5053927;28;20452;-77
2021/12/03 09:14:43;;;;;;;13.23;4.53;;;3.80;99.90;;;;;;5054799;28;20440;-78
2021/12/03 09:17:31;;;;;;;14.03;5.53;;;3.70;99.90;;;;;;5053732;28;20441;-79
2021/12/03 09:20:05;;;;;;;11.17;4.67;;;3.80;99.90;;;;;;5053888;28;20451;-78
2021/12/03 09:22:35;;;;;;;14.77;4.27;;;3.80;99.90;;;;;;5053683;28;20439;-78
2021/12/03 09:25:03;;;;;;;17.10;4.60;;;3.80;99.90;;;;;;5053857;28;20436;-78
2021/12/03 09:27:31;;;;;;;11.60;4.80;;;3.90;99.90;;;;;;5053738;28;20451;-78
2021/12/03 09:29:59;;;;;;;9.87;4.23;;;4.00;99.90;;;;;;5053970;28;20446;-78
2021/12/03 09:32:29;;;;;;;8.27;4.30;;;3.90;99.90;;;;;;5054396;28;20704;-78
2021/12/03 09:34:56;;;;;;;8.97;4.60;;;4.00;99.90;;;;;;5054275;28;20265;-78
2021/12/03 09:37:23;;;;;;;17.07;4.67;;;4.00;99.90;;;;;;5053913;28;20455;-78
2021/12/03 09:39:50;;;;;;;10.37;4.80;;;4.10;99.90;;;;;;5053137;28;20462;-78
2021/12/03 09:42:20;;;;;;;12.70;4.97;;;4.20;99.90;;;;;;5053581;28;20479;-78
2021/12/03 09:44:50;;;;;;;10.07;3.80;;;4.10;99.90;;;;;;5054154;28;20459;-79
2021/12/03 09:47:19;;;;;;;14.07;4.20;;;4.20;99.90;;;;;;5054193;28;20506;-78
2021/12/03 09:49:48;;;;;;;13.13;4.37;;;4.20;99.90;;;;;;5055226;28;20590;-79
2021/12/03 09:52:25;;;;;;;18.77;5.10;;;4.30;99.90;;;;;;5053770;28;20455;-77
2021/12/03 09:54:55;;;;;;;11.03;4.33;;;4.30;99.90;;;;;;5052593;28;20447;-78
2021/12/03 09:57:30;;;;;;;10.87;3.73;;;4.30;99.90;;;;;;5054041;28;20471;-78
2021/12/03 10:00:11;;;;;;;9.47;4.20;;;4.40;99.90;;;;;;5053411;28;20471;-79
2021/12/03 10:03:12;;;;;;;10.50;4.40;;;4.30;99.90;;;;;;5054084;28;20474;-79
2021/12/03 10:20:30;;;;;;;8.60;3.80;;;4.60;99.90;;;;;;5067034;28;20797;-84
2021/12/03 10:46:53;;;;;;;4.50;3.17;;;4.80;99.90;;;;;;5065419;28;20258;-83
2021/12/03 10:52:48;;;;;;;13.17;3.70;;;4.60;99.90;;;;;;5063554;28;20465;-83
2021/12/03 14:46:35;;;;;;;6.43;4.40;;;4.40;99.90;;;;;;5109884;28;20445;-81
2021/12/03 14:54:52;;;;;;;3.93;3.73;;;4.40;99.90;;;;;;5113617;28;20552;-81
2021/12/03 14:57:39;;;;;;;3.73;3.47;;;4.50;99.90;;;;;;5113754;28;20478;-82
2021/12/03 15:00:30;;;;;;;3.80;3.43;;;4.40;99.90;;;;;;5114458;28;20456;-82
2021/12/03 15:06:03;;;;;;;3.17;2.97;;;4.40;99.90;;;;;;5110700;28;20555;-82
2021/12/03 15:08:39;;;;;;;3.83;3.20;;;4.50;99.90;;;;;;5114063;28;20211;-82
2021/12/03 15:20:09;;;;;;;3.73;3.23;;;4.40;99.90;;;;;;5112748;28;20434;-82
2021/12/03 15:22:49;;;;;;;2.90;2.70;;;4.40;99.90;;;;;;5112744;28;20499;-82
2021/12/03 15:28:41;;;;;;;3.57;3.17;;;4.40;99.90;;;;;;5086691;28;20462;-81
2021/12/03 15:34:02;;;;;;;3.10;2.90;;;4.50;99.90;;;;;;5110372;28;20489;-79
2021/12/03 15:36:46;;;;;;;5.00;3.33;;;4.40;99.90;;;;;;5108262;28;20453;-81
2021/12/03 16:12:24;;;;;;;3.80;3.50;;;4.40;99.90;;;;;;5094190;28;20522;-87
2021/12/03 16:15:18;;;;;;;3.30;3.10;;;4.40;99.90;;;;;;5114488;28;20449;-86
2021/12/03 16:18:24;;;;;;;3.23;3.00;;;4.40;99.90;;;;;;5116383;28;20454;-86
2021/12/03 16:24:04;;;;;;;3.33;3.13;;;4.50;99.90;;;;;;5115359;28;20425;-85
2021/12/03 16:26:56;;;;;;;3.73;3.47;;;4.50;99.90;;;;;;5115473;28;20434;-86
2021/12/03 16:47:12;;;;;;;5.33;4.10;;;4.50;99.90;;;;;;5115271;28;20451;-86
2021/12/03 16:52:52;;;;;;;4.63;4.23;;;4.50;99.90;;;;;;5115407;28;20477;-85
2021/12/03 17:04:23;;;;;;;4.50;4.20;;;4.70;99.90;;;;;;5120408;28;20463;-86
2021/12/03 17:07:34;;;;;;;5.85;5.28;;;4.60;99.90;;;;;;5118685;28;20457;-86
2021/12/03 17:10:51;;;;;;;4.67;4.47;;;4.60;99.90;;;;;;5119481;28;20217;-87
2021/12/03 17:13:54;;;;;;;5.10;4.60;;;4.60;99.90;;;;;;5118410;28;20457;-86
2021/12/03 17:47:29;;;;;;;6.30;5.90;;;4.80;99.90;;;;;;5057573;28;20283;-86
2021/12/03 17:50:27;;;;;;;6.03;5.63;;;4.80;99.90;;;;;;5057306;28;20275;-86
2021/12/03 17:56:19;;;;;;;5.47;4.97;;;4.70;99.90;;;;;;5118189;28;20517;-85
2021/12/03 17:59:08;;;;;;;6.07;5.57;;;4.70;99.90;;;;;;5116985;28;20456;-86
2021/12/03 18:02:03;;;;;;;5.47;5.10;;;4.80;99.90;;;;;;5118987;28;20467;-86
2021/12/03 18:07:30;;;;;;;6.13;5.73;;;4.80;99.90;;;;;;5117792;28;20453;-86
2021/12/03 18:10:41;;;;;;;5.80;5.40;;;4.70;99.90;;;;;;5117905;28;20500;-86
2021/12/03 18:55:55;;;;;;;8.50;7.70;;;4.90;99.90;;;;;;5139946;22;20488;-86
2021/12/03 18:58:25;;;;;;;7.53;6.90;;;4.90;99.90;;;;;;5092029;23;20269;-85
2021/12/03 19:00:56;;;;;;;8.47;7.77;;;4.90;99.90;;;;;;5086967;28;20451;-85
2021/12/03 19:03:36;;;;;;;10.83;9.70;;;4.80;99.90;;;;;;5086651;28;20518;-85
2021/12/03 19:06:16;;;;;;;8.70;7.90;;;4.90;99.90;;;;;;5088134;28;20449;-85
2021/12/03 19:09:15;;;;;;;8.83;7.47;;;4.90;99.90;;;;;;5093670;28;20457;-85
2021/12/03 19:12:32;;;;;;;9.13;7.93;;;5.00;99.90;;;;;;5095139;28;20467;-86
2021/12/03 19:25:21;;;;;;;9.00;7.80;;;4.90;99.90;;;;;;5094925;28;20199;-86
2021/12/03 19:27:55;;;;;;;8.77;7.90;;;4.90;99.90;;;;;;5091998;28;20501;-86
2021/12/03 19:30:41;;;;;;;9.57;8.57;;;4.90;99.90;;;;;;5091936;28;21059;-85
2021/12/03 19:33:13;;;;;;;7.50;6.80;;;5.00;99.90;;;;;;5092019;28;20206;-85
2021/12/03 19:41:49;;;;;;;8.83;8.03;;;4.90;99.90;;;;;;5134179;28;20453;-86
2021/12/03 19:44:38;;;;;;;9.90;8.10;;;4.90;99.90;;;;;;5133403;28;20279;-86
2021/12/03 19:47:16;;;;;;;10.77;8.07;;;4.90;99.90;;;;;;5133184;28;20457;-85
2021/12/03 19:50:04;;;;;;;11.63;8.70;;;4.80;99.90;;;;;;5132754;28;20462;-85
2021/12/03 19:53:09;;;;;;;11.20;8.20;;;4.90;99.90;;;;;;5132827;28;21027;-86
2021/12/03 19:59:24;;;;;;;8.40;7.60;;;5.00;99.90;;;;;;5133879;28;20445;-85
2021/12/03 20:11:15;;;;;;;9.17;7.67;;;4.90;99.90;;;;;;5119861;28;20239;-87
2021/12/03 20:13:59;;;;;;;8.27;7.57;;;4.90;99.90;;;;;;5119812;28;20445;-86
2021/12/03 20:17:15;;;;;;;8.47;7.87;;;4.90;99.90;;;;;;5120042;28;20453;-86
2021/12/03 20:23:36;;;;;;;8.00;7.30;;;5.10;99.90;;;;;;5118191;28;20193;-86
2021/12/03 20:42:10;;;;;;;10.32;9.52;;;5.20;99.90;;;;;;5118299;28;20418;-86
2021/12/03 20:58:16;;;;;;;8.97;8.27;;;5.30;99.90;;;;;;5078440;28;20198;-86
2021/12/03 21:23:10;;;;;;;9.93;8.57;;;5.20;99.90;;;;;;5118889;28;20190;-86
2021/12/03 21:47:11;;;;;;;8.77;8.07;;;5.30;99.90;;;;;;5115240;28;20276;-85
2021/12/03 22:12:01;;;;;;;7.77;7.07;;;5.50;99.90;;;;;;5112954;22;20236;-85
2021/12/03 22:14:38;;;;;;;7.40;6.87;;;5.50;99.90;;;;;;5149017;22;20248;-84
2021/12/03 23:25:25;;;;;;;7.20;6.60;;;5.60;99.90;;;;;;5075022;28;20197;-88
2021/12/03 23:34:51;;;;;;;7.10;6.60;;;5.50;99.90;;;;;;5060161;28;20208;-86
2021/12/03 23:41:37;;;;;;;8.20;7.57;;;5.60;99.90;;;;;;4978188;28;20202;-86
2021/12/03 23:58:02;;;;;;;7.20;6.70;;;5.80;99.90;;;;;;5139657;28;20243;-85
